Time;durP1;ratioP1;P1;durP2;ratioP2;P2;SDS_P1;SDS_P2;PMS_P1;PMS_P2;Temp;Humidity;BMP_temperature;BMP_pressure;BME280_temperature;BME280_humidity;BME280_pressure;Samples;Min_cycle;Max_cycle;Signal;HPM_P1;HPM_P2
2020/12/26 00:01:38;;;;;;;2.15;1.05;;;;;;;1.74;56.68;95812.53;4970980;28;20034;-60
2020/12/26 00:04:04;;;;;;;1.23;1.13;;;;;;;1.82;58.44;95800.88;4969940;28;20062;-61
2020/12/26 00:06:30;;;;;;;1.10;1.00;;;;;;;1.74;56.75;95809.09;4970944;28;20086;-60
2020/12/26 00:08:55;;;;;;;1.70;1.33;;;;;;;2.00;59.06;95798.09;4970945;28;20035;-60
2020/12/26 00:11:20;;;;;;;2.15;1.27;;;;;;;1.71;58.56;95810.34;4970951;28;20494;-61
2020/12/26 00:13:47;;;;;;;1.35;1.25;;;;;;;1.28;59.37;95777.50;4973019;28;20112;-61
2020/12/26 00:16:13;;;;;;;2.45;1.90;;;;;;;1.61;59.52;95819.84;4971142;28;20051;-61
2020/12/26 00:18:39;;;;;;;1.83;1.70;;;;;;;1.16;59.44;95829.09;4969363;28;20038;-61
2020/12/26 00:21:08;;;;;;;1.90;1.50;;;;;;;1.42;60.57;95819.97;4970972;28;20039;-61
2020/12/26 00:23:34;;;;;;;2.08;1.83;;;;;;;1.36;61.55;95815.66;4970927;28;20170;-61
2020/12/26 00:25:59;;;;;;;2.60;2.05;;;;;;;1.16;62.26;95831.72;4972822;28;20106;-61
2020/12/26 00:28:25;;;;;;;4.78;2.20;;;;;;;1.38;63.54;95807.53;4969366;28;20038;-61
2020/12/26 00:30:50;;;;;;;3.05;2.50;;;;;;;1.22;64.03;95811.66;4970583;28;20054;-64
2020/12/26 00:33:15;;;;;;;2.80;2.60;;;;;;;1.41;65.04;95807.09;4970705;28;20047;-61
2020/12/26 00:35:40;;;;;;;3.20;2.40;;;;;;;1.45;64.52;95810.88;4970853;28;20043;-60
2020/12/26 00:38:06;;;;;;;4.53;2.60;;;;;;;1.77;64.89;95812.06;4972737;28;20118;-60
2020/12/26 00:40:34;;;;;;;2.88;2.50;;;;;;;1.17;65.29;95785.34;4970476;28;20045;-60
2020/12/26 00:42:59;;;;;;;3.35;2.90;;;;;;;1.14;66.45;95799.72;4969177;28;20054;-61
2020/12/26 00:45:25;;;;;;;3.40;2.83;;;;;;;1.17;65.88;95794.00;4970829;28;20396;-60
2020/12/26 00:47:50;;;;;;;3.83;2.90;;;;;;;1.58;65.95;95831.56;4970539;28;20097;-61
2020/12/26 00:50:15;;;;;;;4.35;2.80;;;;;;;1.00;66.86;95803.56;4970628;28;20030;-63
2020/12/26 00:52:41;;;;;;;4.25;2.67;;;;;;;1.29;67.53;95833.31;4971712;28;20043;-61
2020/12/26 00:55:06;;;;;;;3.65;3.10;;;;;;;1.64;66.51;95841.16;4955668;28;20102;-61
2020/12/26 00:57:36;;;;;;;4.38;2.88;;;;;;;1.64;66.91;95845.59;4961256;28;20047;-61
2020/12/26 01:00:04;;;;;;;2.90;2.70;;;;;;;0.81;65.21;95825.63;4968183;28;20170;-61
2020/12/26 01:02:29;;;;;;;3.10;2.63;;;;;;;1.00;66.46;95835.00;4969913;28;20019;-61
2020/12/26 01:04:54;;;;;;;3.08;2.38;;;;;;;1.14;64.56;95851.31;4972031;28;20501;-61
2020/12/26 01:07:20;;;;;;;2.75;2.55;;;;;;;1.23;65.74;95860.44;4970086;28;20047;-61
2020/12/26 01:09:45;;;;;;;2.90;2.67;;;;;;;0.55;67.21;95850.41;4969953;28;20062;-61
2020/12/26 01:12:10;;;;;;;3.10;2.72;;;;;;;0.99;66.38;95854.38;4968579;28;20117;-61
2020/12/26 01:14:36;;;;;;;3.95;2.17;;;;;;;0.54;65.92;95877.59;4969987;28;20499;-61
2020/12/26 01:17:01;;;;;;;3.25;2.17;;;;;;;0.04;66.75;95831.53;4970634;28;20027;-62
2020/12/26 01:19:27;;;;;;;2.47;2.25;;;;;;;0.42;65.58;95854.81;4969815;28;20046;-60
2020/12/26 01:21:53;;;;;;;3.97;2.78;;;;;;;0.69;64.82;95868.31;4969692;28;20097;-61
2020/12/26 01:24:19;;;;;;;4.07;2.88;;;;;;;0.65;65.57;95868.97;4969685;28;20054;-61
2020/12/26 01:26:48;;;;;;;2.38;1.90;;;;;;;0.89;64.56;95875.09;4969791;28;20483;-60
2020/12/26 01:29:15;;;;;;;4.13;3.00;;;;;;;0.93;65.09;95863.94;4971168;28;20062;-61
2020/12/26 01:31:41;;;;;;;2.53;2.33;;;;;;;-0.12;66.42;95812.03;4969715;28;20118;-60
2020/12/26 01:34:07;;;;;;;2.88;2.50;;;;;;;0.65;65.81;95869.78;4968539;28;20090;-61
2020/12/26 01:36:32;;;;;;;2.78;2.50;;;;;;;0.39;66.04;95859.69;4969841;28;20492;-61
2020/12/26 01:38:58;;;;;;;2.55;2.35;;;;;;;0.57;66.88;95856.22;4969561;28;20046;-62
2020/12/26 01:41:24;;;;;;;2.47;2.28;;;;;;;0.85;65.74;95864.25;4969462;28;20058;-62
2020/12/26 01:43:57;;;;;;;2.72;2.53;;;;;;;0.86;65.38;95852.75;4971604;28;20037;-62
2020/12/26 01:46:25;;;;;;;2.58;2.38;;;;;;;0.57;66.71;95840.50;4969654;28;20051;-62
2020/12/26 01:48:51;;;;;;;3.88;2.78;;;;;;;0.80;66.96;95813.56;4969466;28;20049;-62
2020/12/26 01:51:16;;;;;;;2.50;2.30;;;;;;;0.57;66.62;95830.03;4969234;28;20121;-61
2020/12/26 01:53:42;;;;;;;2.80;2.58;;;;;;;0.56;67.39;95833.66;4969617;28;20140;-61
2020/12/26 01:56:08;;;;;;;3.22;2.75;;;;;;;0.51;67.66;95827.31;4971547;28;20031;-61
2020/12/26 01:58:34;;;;;;;5.25;3.22;;;;;;;0.65;67.47;95855.88;4969325;28;20049;-62
2020/12/26 02:01:00;;;;;;;3.58;3.10;;;;;;;-0.16;70.32;95860.53;4969615;28;20109;-61
2020/12/26 02:03:25;;;;;;;3.30;3.00;;;;;;;-0.39;71.99;95869.03;4967959;28;20500;-60
2020/12/26 02:05:53;;;;;;;3.92;3.45;;;;;;;-0.61;72.80;95832.09;4969716;28;20428;-60
2020/12/26 02:08:19;;;;;;;3.83;3.53;;;;;;;-0.50;72.66;95840.22;4968124;28;20370;-62
2020/12/26 02:10:44;;;;;;;3.58;3.28;;;;;;;-0.21;71.76;95852.53;4971407;28;20105;-61
2020/12/26 02:13:09;;;;;;;3.83;3.50;;;;;;;-0.80;74.61;95852.16;4972395;28;20594;-62
2020/12/26 02:15:35;;;;;;;3.85;3.55;;;;;;;-0.49;74.01;95884.41;4973257;28;20038;-61
2020/12/26 02:18:00;;;;;;;4.20;3.80;;;;;;;-0.53;73.50;95855.31;4973243;28;20043;-61
2020/12/26 02:20:25;;;;;;;3.70;3.40;;;;;;;-0.75;74.95;95855.94;4972917;28;20502;-62
2020/12/26 02:22:50;;;;;;;4.22;3.83;;;;;;;-0.47;74.12;95865.91;4974822;28;20027;-60
2020/12/26 02:25:16;;;;;;;7.05;4.70;;;;;;;-0.66;74.50;95847.59;4973087;28;20038;-62
2020/12/26 02:27:41;;;;;;;6.55;4.63;;;;;;;-0.79;75.45;95853.75;4972843;28;20055;-61
2020/12/26 02:30:06;;;;;;;6.05;5.05;;;;;;;-1.02;76.60;95837.88;4972677;28;20388;-61
2020/12/26 02:32:32;;;;;;;6.32;5.70;;;;;;;-0.86;77.20;95866.06;4972458;28;20082;-61
2020/12/26 02:34:57;;;;;;;6.60;5.85;;;;;;;-1.02;77.35;95842.28;4974807;28;20422;-61
2020/12/26 02:37:22;;;;;;;6.93;5.63;;;;;;;-0.81;77.07;95878.50;4972789;28;20531;-61
2020/12/26 02:39:51;;;;;;;6.72;6.03;;;;;;;-0.72;76.35;95865.94;4972476;28;20043;-60
2020/12/26 02:42:16;;;;;;;6.55;5.93;;;;;;;-0.67;76.43;95863.47;4972409;28;20480;-61
2020/12/26 02:44:41;;;;;;;7.22;5.40;;;;;;;-0.67;76.79;95866.88;4972740;28;20042;-61
2020/12/26 02:47:07;;;;;;;6.50;5.90;;;;;;;-0.87;77.48;95869.69;4974601;28;20030;-61
2020/12/26 02:49:32;;;;;;;7.60;6.63;;;;;;;-0.84;77.63;95877.09;4972369;28;20133;-61
2020/12/26 02:51:57;;;;;;;8.13;6.63;;;;;;;-0.88;78.30;95868.06;4972167;28;20492;-61
2020/12/26 02:54:22;;;;;;;7.28;6.57;;;;;;;-0.15;76.67;95898.75;4972617;28;20050;-61
2020/12/26 02:56:48;;;;;;;6.55;5.95;;;;;;;-0.52;76.31;95883.03;4972431;28;20038;-61
2020/12/26 02:59:13;;;;;;;7.78;5.80;;;;;;;-0.62;77.67;95877.50;4972772;28;20117;-61
2020/12/26 03:01:40;;;;;;;6.78;6.07;;;;;;;-0.70;77.12;95880.41;4971656;28;20038;-61
2020/12/26 03:04:05;;;;;;;7.75;6.18;;;;;;;-0.43;76.83;95899.22;4971304;28;20034;-62
2020/12/26 03:06:31;;;;;;;6.47;5.70;;;;;;;-0.40;76.82;95895.41;4971884;28;20062;-59
2020/12/26 03:08:56;;;;;;;7.82;6.15;;;;;;;-0.66;76.75;95862.50;4972313;28;20130;-60
2020/12/26 03:11:22;;;;;;;9.00;7.00;;;;;;;-0.27;76.40;95913.56;4971894;28;20030;-61
2020/12/26 03:13:48;;;;;;;8.38;6.03;;;;;;;-0.55;77.31;95904.38;4974086;28;20035;-62
2020/12/26 03:16:14;;;;;;;6.63;5.97;;;;;;;-0.73;77.83;95896.50;4972188;28;20038;-61
2020/12/26 03:18:39;;;;;;;8.52;6.95;;;;;;;-0.45;77.61;95908.31;4971877;28;20501;-61
2020/12/26 03:21:04;;;;;;;7.68;6.35;;;;;;;-0.80;77.74;95888.72;4970815;28;20085;-61
2020/12/26 03:23:30;;;;;;;14.38;6.07;;;;;;;-0.97;79.57;95892.06;4969504;28;20030;-61
2020/12/26 03:25:55;;;;;;;7.15;5.53;;;;;;;-0.85;78.92;95885.16;4954475;29;20031;-61
2020/12/26 03:28:20;;;;;;;6.63;6.00;;;;;;;-0.95;79.61;95922.19;4968750;28;20085;-61
2020/12/26 03:30:45;;;;;;;6.97;6.28;;;;;;;-0.93;80.11;95917.53;4959908;28;20039;-61
2020/12/26 03:33:11;;;;;;;7.15;5.95;;;;;;;-1.32;81.00;95887.31;4959673;28;20126;-61
2020/12/26 03:35:36;;;;;;;9.95;6.65;;;;;;;-1.35;80.94;95890.31;4970671;28;20050;-61
2020/12/26 03:38:01;;;;;;;7.22;6.30;;;;;;;-1.03;80.20;95929.47;4973524;28;20058;-61
2020/12/26 03:40:27;;;;;;;10.05;7.13;;;;;;;-1.40;81.55;95908.41;4970051;28;20039;-61
2020/12/26 03:42:52;;;;;;;9.35;6.90;;;;;;;-1.29;81.67;95926.00;4971437;28;20054;-61
2020/12/26 03:45:17;;;;;;;11.73;7.10;;;;;;;-1.65;82.05;95897.91;4971614;28;20401;-61
2020/12/26 03:47:42;;;;;;;10.00;7.65;;;;;;;-1.60;82.58;95903.31;4971552;28;20035;-61
2020/12/26 03:50:08;;;;;;;10.85;7.88;;;;;;;-1.59;82.79;95910.94;4971878;28;20035;-61
2020/12/26 03:52:33;;;;;;;9.95;8.43;;;;;;;-1.27;81.85;95929.22;4970104;28;20497;-61
2020/12/26 03:54:58;;;;;;;11.20;8.73;;;;;;;-1.46;82.48;95909.25;4971587;28;20047;-61
2020/12/26 03:57:24;;;;;;;12.38;8.50;;;;;;;-1.09;81.21;95931.13;4971332;28;20073;-61
2020/12/26 03:59:49;;;;;;;12.13;9.68;;;;;;;-1.07;79.97;95916.06;4971229;28;20321;-60
2020/12/26 04:02:14;;;;;;;12.63;9.18;;;;;;;-0.97;79.68;95939.88;4971730;28;20033;-62
2020/12/26 04:04:39;;;;;;;13.07;9.60;;;;;;;-1.15;79.68;95917.09;4970068;28;20051;-62
2020/12/26 04:07:05;;;;;;;16.95;10.77;;;;;;;-0.98;79.54;95940.88;4971406;28;20393;-62
2020/12/26 04:09:30;;;;;;;12.90;9.43;;;;;;;-1.33;81.67;95943.94;4971075;28;20101;-62
2020/12/26 04:11:56;;;;;;;23.25;11.00;;;;;;;-1.54;82.37;95919.94;4970991;28;20043;-60
2020/12/26 04:14:21;;;;;;;13.52;10.52;;;;;;;-1.70;82.86;95918.59;4971111;28;20117;-62
2020/12/26 04:16:46;;;;;;;14.48;10.68;;;;;;;-1.74;84.47;95954.75;4973068;28;20388;-62
2020/12/26 04:19:11;;;;;;;11.63;9.68;;;;;;;-1.76;84.18;95937.69;4970850;28;20131;-61
2020/12/26 04:21:37;;;;;;;17.08;10.90;;;;;;;-1.69;82.76;95931.47;4970819;28;20129;-61
2020/12/26 04:24:03;;;;;;;14.50;10.23;;;;;;;-1.99;84.59;95933.78;4970879;28;20047;-62
2020/12/26 04:26:28;;;;;;;17.25;9.95;;;;;;;-1.82;83.73;95947.16;4969449;28;20184;-62
2020/12/26 04:28:53;;;;;;;15.10;10.18;;;;;;;-2.00;84.06;95920.94;4972299;28;20035;-61
2020/12/26 04:31:19;;;;;;;14.63;9.50;;;;;;;-1.91;84.20;95975.25;4970492;28;20039;-61
2020/12/26 04:33:44;;;;;;;15.15;10.50;;;;;;;-1.74;84.12;95967.78;4970702;28;20039;-61
2020/12/26 04:36:09;;;;;;;15.55;9.18;;;;;;;-1.84;83.73;95949.97;4969780;28;20027;-62
2020/12/26 04:38:35;;;;;;;16.98;10.88;;;;;;;-1.87;83.72;95939.94;4970455;28;20034;-61
2020/12/26 04:41:01;;;;;;;18.67;11.63;;;;;;;-1.95;82.30;95889.81;4972369;28;20038;-61
2020/12/26 04:43:27;;;;;;;19.17;11.00;;;;;;;-1.51;82.12;95956.06;4970326;28;20037;-61
2020/12/26 04:45:54;;;;;;;23.92;12.40;;;;;;;-1.65;81.01;95914.38;4969087;28;20748;-61
2020/12/26 04:48:22;;;;;;;21.98;13.23;;;;;;;-1.36;81.68;95967.03;4970211;28;20077;-61
2020/12/26 04:50:50;;;;;;;22.00;13.35;;;;;;;-1.43;80.67;95929.72;4970439;28;20043;-61
2020/12/26 04:53:18;;;;;;;24.20;13.52;;;;;;;-1.36;80.96;95970.44;4970243;28;20031;-64
2020/12/26 04:55:48;;;;;;;24.02;13.63;;;;;;;-1.38;81.16;95980.28;4972173;28;20038;-61
2020/12/26 04:58:15;;;;;;;20.02;13.20;;;;;;;-1.95;84.03;95952.41;4969925;28;20045;-61
2020/12/26 05:00:42;;;;;;;16.08;10.73;;;;;;;-1.83;83.84;95984.66;4970012;28;20038;-61
2020/12/26 05:03:11;;;;;;;16.27;11.57;;;;;;;-1.59;83.30;95998.81;4970038;28;20049;-61
2020/12/26 05:05:42;;;;;;;16.58;11.80;;;;;;;-1.91;83.54;95995.31;4970288;28;20038;-60
2020/12/26 05:08:09;;;;;;;17.50;11.20;;;;;;;-2.07;84.16;95990.53;4972069;28;20089;-63
2020/12/26 05:10:36;;;;;;;24.30;11.40;;;;;;;-2.46;86.00;95990.38;4969942;28;20031;-60
2020/12/26 05:13:03;;;;;;;18.20;9.90;;;;;;;-2.27;86.05;96022.63;4970059;28;20034;-60
2020/12/26 05:15:29;;;;;;;14.70;10.80;;;;;;;-2.42;86.12;95993.38;4970110;28;20034;-61
2020/12/26 05:17:54;;;;;;;16.63;10.32;;;;;;;-2.31;85.36;96016.22;4968801;28;20031;-61
2020/12/26 05:20:23;;;;;;;14.30;9.60;;;;;;;-2.59;85.57;95997.41;4968406;28;20019;-61
2020/12/26 05:22:49;;;;;;;14.48;10.45;;;;;;;-2.31;85.26;96008.41;4971522;28;20019;-60
2020/12/26 05:25:15;;;;;;;16.50;11.95;;;;;;;-2.16;83.21;95972.50;4968675;28;20396;-60
2020/12/26 05:27:41;;;;;;;17.25;11.15;;;;;;;-2.54;85.11;95981.97;4969910;28;20050;-62
2020/12/26 05:30:07;;;;;;;17.13;10.88;;;;;;;-2.18;84.81;96020.63;4962978;28;20035;-62
2020/12/26 05:32:33;;;;;;;17.00;11.82;;;;;;;-2.01;83.76;96015.78;4952385;28;20596;-62
2020/12/26 05:35:07;;;;;;;20.00;12.52;;;;;;;-1.91;83.10;96021.38;4970634;28;20560;-60
2020/12/26 05:37:32;;;;;;;26.58;14.00;;;;;;;-1.99;82.67;96011.19;4970025;28;20042;-60
2020/12/26 05:40:02;;;;;;;25.63;13.70;;;;;;;-1.89;82.14;96040.25;4969630;28;20038;-61
2020/12/26 05:42:28;;;;;;;22.23;12.45;;;;;;;-1.89;82.74;96035.84;4969451;28;20027;-60
2020/12/26 05:45:04;;;;;;;12.15;9.90;;;;;;;-2.28;83.16;95989.75;4969671;28;20042;-61
2020/12/26 05:47:30;;;;;;;15.65;10.70;;;;;;;-2.66;83.99;95940.91;4970665;28;20118;-70
2020/12/26 05:49:56;;;;;;;15.75;9.75;;;;;;;-2.10;83.11;96036.03;4974319;28;20037;-62
2020/12/26 05:52:24;;;;;;;15.50;9.82;;;;;;;-2.09;83.46;96045.50;4973319;28;20035;-59
2020/12/26 05:54:51;;;;;;;12.57;10.00;;;;;;;-1.97;82.84;96043.06;4973649;28;20046;-60
2020/12/26 05:57:17;;;;;;;12.38;9.50;;;;;;;-2.07;84.15;96055.72;4973693;28;20118;-60
2020/12/26 05:59:48;;;;;;;13.07;9.30;;;;;;;-2.03;82.94;96036.84;4971971;28;20472;-62
2020/12/26 06:02:19;;;;;;;10.93;8.35;;;;;;;-2.11;83.54;96050.09;4975019;28;20030;-64
2020/12/26 06:04:52;;;;;;;14.07;8.98;;;;;;;-2.02;83.44;96050.69;4973850;28;20042;-63
2020/12/26 06:07:28;;;;;;;13.32;9.27;;;;;;;-1.71;82.30;96029.97;4971890;28;20059;-62
2020/12/26 06:09:56;;;;;;;12.02;9.60;;;;;;;-1.52;81.12;96030.91;4973204;28;20061;-67
2020/12/26 06:12:23;;;;;;;10.32;9.30;;;;;;;-1.70;80.93;96023.72;4973146;28;20034;-67
2020/12/26 06:14:49;;;;;;;11.57;9.68;;;;;;;-1.01;79.66;96058.81;4971853;28;20078;-67
2020/12/26 06:17:19;;;;;;;13.95;9.10;;;;;;;-1.43;79.57;96016.63;4975087;28;20051;-66
2020/12/26 06:20:12;;;;;;;10.70;8.27;;;;;;;-1.42;79.52;96051.38;4972170;28;20452;-66
2020/12/26 06:22:59;;;;;;;9.85;8.85;;;;;;;-0.99;78.17;96022.84;4968145;28;20422;-64
2020/12/26 06:25:25;;;;;;;10.98;9.25;;;;;;;-0.71;77.49;96063.50;4972806;28;20035;-59
2020/12/26 06:27:53;;;;;;;10.30;9.23;;;;;;;-1.22;79.67;96067.75;4960375;28;20054;-63
2020/12/26 06:30:19;;;;;;;12.20;9.57;;;;;;;-1.32;78.76;96004.75;4961442;28;20169;-65
2020/12/26 06:32:49;;;;;;;10.10;8.05;;;;;;;-0.88;77.21;96050.09;4972817;28;20193;-62
2020/12/26 06:35:15;;;;;;;10.15;8.15;;;;;;;-1.07;78.39;96041.38;4974686;28;20034;-64
2020/12/26 06:37:41;;;;;;;12.20;9.00;;;;;;;-0.61;77.14;96061.22;4972691;28;20039;-63
2020/12/26 06:40:26;;;;;;;11.00;9.23;;;;;;;-0.99;78.07;96066.44;4972377;28;20043;-64
2020/12/26 06:42:52;;;;;;;10.82;9.40;;;;;;;-0.89;78.07;96057.16;4972660;28;20129;-61
2020/12/26 06:45:33;;;;;;;12.15;9.38;;;;;;;-1.16;78.79;96061.69;4972718;28;20194;-61
2020/12/26 06:47:59;;;;;;;13.63;10.60;;;;;;;-1.59;79.22;96010.09;4972467;28;20051;-62
2020/12/26 06:50:27;;;;;;;10.60;9.23;;;;;;;-1.05;78.54;96070.69;4971154;28;20270;-67
2020/12/26 06:52:52;;;;;;;11.27;10.10;;;;;;;-1.40;78.72;96025.84;4973985;28;20178;-64
2020/12/26 06:55:41;;;;;;;10.07;8.95;;;;;;;-1.18;79.29;96073.34;4970264;28;20570;-66
2020/12/26 06:58:11;;;;;;;14.35;9.00;;;;;;;-1.69;80.55;96080.13;4971445;28;20053;-66
2020/12/26 07:00:37;;;;;;;9.82;8.60;;;;;;;-1.72;80.98;96051.84;4971961;28;20039;-67
2020/12/26 07:03:22;;;;;;;13.35;9.10;;;;;;;-1.77;81.38;96085.56;4972283;28;20046;-66
2020/12/26 07:05:48;;;;;;;10.60;8.48;;;;;;;-2.23;80.74;96016.03;4972370;28;20038;-65
2020/12/26 07:08:27;;;;;;;11.02;8.80;;;;;;;-2.13;81.49;96039.88;4973951;28;20042;-63
2020/12/26 07:10:55;;;;;;;12.70;9.65;;;;;;;-2.01;81.77;96073.13;4972500;28;20039;-66
2020/12/26 07:13:42;;;;;;;13.07;8.10;;;;;;;-1.91;82.11;96104.81;4970730;28;20118;-65
2020/12/26 07:16:36;;;;;;;10.60;9.23;;;;;;;-1.78;81.21;96099.59;4971098;28;20043;-69
2020/12/26 07:19:22;;;;;;;12.13;10.73;;;;;;;-1.51;80.89;96100.34;4971881;28;20130;-62
2020/12/26 07:21:49;;;;;;;12.30;9.82;;;;;;;-2.04;82.82;96104.84;4971626;28;20505;-66
2020/12/26 07:24:21;;;;;;;16.58;10.98;;;;;;;-2.01;82.72;96120.06;4970632;28;20539;-62
2020/12/26 07:26:46;;;;;;;;;;;;;;;-1.88;81.14;96114.88;4970672;28;20193;-61
2020/12/26 07:29:28;;;;;;;14.50;10.57;;;;;;;-2.20;81.87;96049.50;4973424;28;19996;-61
2020/12/26 07:31:54;;;;;;;12.45;10.38;;;;;;;-1.76;82.02;96125.47;4972049;28;20125;-61
2020/12/26 07:34:40;;;;;;;15.25;11.52;;;;;;;-1.67;81.72;96126.88;4971697;28;20108;-63
2020/12/26 07:37:06;;;;;;;12.07;9.73;;;;;;;-1.88;79.81;96073.13;4971688;28;20047;-63
2020/12/26 07:39:32;;;;;;;14.48;11.07;;;;;;;-1.36;80.10;96108.75;4969137;28;20109;-61
2020/12/26 07:41:57;;;;;;;14.85;10.77;;;;;;;-1.53;80.56;96097.16;4971304;28;20483;-62
2020/12/26 07:44:29;;;;;;;13.43;10.40;;;;;;;-1.98;79.38;96050.09;4970365;28;20077;-62
2020/12/26 07:46:56;;;;;;;11.20;9.02;;;;;;;-1.71;81.16;96136.09;4973822;28;20041;-64
2020/12/26 07:49:23;;;;;;;12.73;10.40;;;;;;;-2.76;80.21;95921.50;4971251;28;20046;-64
2020/12/26 07:52:05;;;;;;;12.48;9.82;;;;;;;-1.80;79.90;96099.00;4971227;28;20034;-62
2020/12/26 07:54:31;;;;;;;11.88;10.32;;;;;;;-0.95;78.88;96104.19;4971643;28;20125;-62
2020/12/26 07:56:57;;;;;;;10.27;9.20;;;;;;;-0.95;77.50;96145.97;4971587;28;20119;-62
2020/12/26 07:59:23;;;;;;;11.65;8.85;;;;;;;-0.99;77.67;96131.72;4971148;28;20026;-60
2020/12/26 08:01:50;;;;;;;12.32;9.90;;;;;;;-1.39;77.53;96085.66;4955678;28;20025;-62
2020/12/26 08:04:16;;;;;;;11.40;9.20;;;;;;;-1.05;77.72;96156.84;4971375;28;20093;-61
2020/12/26 08:06:42;;;;;;;15.23;10.23;;;;;;;-1.16;78.02;96145.25;4970924;28;20440;-61
2020/12/26 08:09:08;;;;;;;11.45;9.68;;;;;;;-0.27;76.96;96144.41;4970783;28;20039;-64
2020/12/26 08:11:34;;;;;;;12.60;9.73;;;;;;;0.05;75.74;96127.91;4970831;28;20089;-63
2020/12/26 08:14:00;;;;;;;9.38;8.43;;;;;;;-0.02;72.58;96130.59;4972963;28;20133;-62
2020/12/26 08:16:25;;;;;;;12.98;8.10;;;;;;;0.51;72.67;96140.59;4971061;28;20050;-61
2020/12/26 08:18:50;;;;;;;8.27;7.47;;;;;;;0.44;70.05;96152.94;4970702;28;20039;-63
2020/12/26 08:21:21;;;;;;;6.95;6.30;;;;;;;-0.13;69.07;96145.16;4970549;28;20034;-62
2020/12/26 08:24:00;;;;;;;8.00;7.25;;;;;;;-0.17;70.17;96133.50;4970832;28;20097;-61
2020/12/26 08:26:28;;;;;;;7.90;7.10;;;;;;;0.11;70.13;96146.19;4969237;28;20504;-61
2020/12/26 08:28:57;;;;;;;8.70;7.10;;;;;;;0.51;69.73;96110.00;4972601;28;20031;-61
2020/12/26 08:31:23;;;;;;;8.63;6.75;;;;;;;0.67;68.54;96079.03;4969138;28;20097;-60
2020/12/26 08:34:00;;;;;;;9.15;7.20;;;;;;;1.08;67.20;96114.22;4970699;28;20035;-60
2020/12/26 08:36:37;;;;;;;7.63;6.82;;;;;;;0.53;66.32;96115.03;4970514;28;20034;-61
2020/12/26 08:39:03;;;;;;;9.52;6.50;;;;;;;0.94;67.30;96140.56;4970291;28;20094;-61
2020/12/26 08:41:32;;;;;;;7.68;6.97;;;;;;;1.45;67.44;96141.97;4970038;28;20098;-61
2020/12/26 08:43:58;;;;;;;9.63;7.78;;;;;;;1.74;67.66;96136.94;4972440;28;20034;-61
2020/12/26 08:46:27;;;;;;;6.82;6.13;;;;;;;2.02;66.29;96168.63;4970222;28;20062;-61
2020/12/26 08:48:55;;;;;;;7.13;6.45;;;;;;;1.16;64.64;96122.56;4970190;28;20181;-61
2020/12/26 08:51:27;;;;;;;6.80;6.10;;;;;;;1.74;66.10;96135.16;4970106;28;20090;-61
2020/12/26 08:53:57;;;;;;;6.63;6.03;;;;;;;1.82;64.19;96161.03;4970321;28;20031;-61
2020/12/26 08:56:36;;;;;;;8.65;7.75;;;;;;;1.91;64.66;96152.88;4970314;28;20033;-62
2020/12/26 08:59:03;;;;;;;7.00;6.30;;;;;;;1.47;64.06;96155.66;4971900;28;20027;-61
2020/12/26 09:01:29;;;;;;;9.90;6.72;;;;;;;1.86;64.11;96173.72;4968585;28;20050;-61
2020/12/26 09:03:56;;;;;;;11.45;7.97;;;;;;;1.87;64.72;96131.50;4970127;28;20410;-60
2020/12/26 09:06:30;;;;;;;7.63;6.90;;;;;;;1.74;63.14;96173.66;4970058;28;20038;-60
2020/12/26 09:08:55;;;;;;;7.32;6.63;;;;;;;1.47;65.04;96123.41;4969921;28;20035;-60
2020/12/26 09:11:29;;;;;;;7.28;6.57;;;;;;;1.82;64.71;96150.56;4968442;28;20037;-61
2020/12/26 09:13:55;;;;;;;6.70;5.90;;;;;;;1.96;64.03;96164.28;4971882;28;20034;-61
2020/12/26 09:16:20;;;;;;;8.02;5.88;;;;;;;1.92;63.47;96157.88;4969938;28;20042;-61
2020/12/26 09:18:49;;;;;;;6.53;5.82;;;;;;;1.74;64.26;96165.78;4969740;28;20050;-61
2020/12/26 09:21:25;;;;;;;7.88;6.43;;;;;;;1.66;65.15;96164.28;4969094;28;20122;-61
2020/12/26 09:23:52;;;;;;;8.52;7.57;;;;;;;1.56;65.57;96148.28;4968583;28;20035;-61
2020/12/26 09:26:23;;;;;;;8.60;7.10;;;;;;;1.56;65.86;96167.44;4969639;28;20035;-62
2020/12/26 09:28:54;;;;;;;7.63;5.95;;;;;;;1.61;65.75;96172.03;4971392;28;20030;-60
2020/12/26 09:31:22;;;;;;;7.97;6.45;;;;;;;1.38;64.86;96146.50;4969486;28;20400;-61
2020/12/26 09:33:47;;;;;;;8.13;7.30;;;;;;;1.36;65.67;96140.69;4969829;28;20041;-61
2020/12/26 09:36:17;;;;;;;8.85;7.45;;;;;;;1.59;65.89;96168.00;4968560;28;20035;-60
2020/12/26 09:38:43;;;;;;;7.38;6.10;;;;;;;1.55;65.60;96162.44;4969462;28;20035;-60
2020/12/26 09:41:10;;;;;;;6.88;6.13;;;;;;;0.97;65.65;96105.25;4971533;28;20547;-61
2020/12/26 09:43:35;;;;;;;6.30;5.78;;;;;;;1.25;65.65;96171.06;4969739;28;20034;-61
2020/12/26 09:46:00;;;;;;;6.18;5.55;;;;;;;1.19;65.16;96131.84;4954773;28;20080;-60
2020/12/26 09:48:26;;;;;;;5.68;4.60;;;;;;;1.33;64.31;96143.72;4950029;28;20039;-60
2020/12/26 09:50:51;;;;;;;6.88;5.40;;;;;;;1.47;64.99;96145.16;4955067;28;20125;-62
2020/12/26 09:53:16;;;;;;;7.30;5.03;;;;;;;0.96;63.75;96142.97;4969320;28;20034;-63
2020/12/26 09:55:41;;;;;;;6.10;4.93;;;;;;;1.34;64.85;96139.31;4971475;28;20457;-61
2020/12/26 09:58:07;;;;;;;5.75;4.78;;;;;;;1.39;64.51;96121.91;4969334;28;20043;-61
2020/12/26 10:00:32;;;;;;;6.72;4.70;;;;;;;1.63;64.70;96142.94;4968725;28;20035;-61
2020/12/26 10:02:57;;;;;;;6.93;4.50;;;;;;;1.50;64.30;96117.72;4967842;28;20129;-62
2020/12/26 10:05:22;;;;;;;7.28;4.15;;;;;;;1.54;65.29;96096.09;4969345;28;20485;-62
2020/12/26 10:07:48;;;;;;;5.43;4.22;;;;;;;1.74;62.18;96110.72;4971257;28;20035;-60
2020/12/26 10:10:13;;;;;;;4.05;3.75;;;;;;;1.76;62.79;96095.56;4968997;28;20054;-61
2020/12/26 10:12:38;;;;;;;4.38;3.72;;;;;;;1.14;61.70;96066.19;4967783;28;20039;-60
2020/12/26 10:15:04;;;;;;;3.97;3.58;;;;;;;1.43;62.48;96069.81;4969357;28;20034;-61
2020/12/26 10:17:29;;;;;;;4.47;4.07;;;;;;;1.73;62.82;96090.75;4969300;28;20500;-61
2020/12/26 10:19:55;;;;;;;4.22;3.80;;;;;;;1.43;61.86;96059.31;4969723;28;20077;-61
2020/12/26 10:22:20;;;;;;;3.95;3.40;;;;;;;1.94;61.61;96119.09;4968963;28;20039;-61
2020/12/26 10:24:45;;;;;;;4.18;3.78;;;;;;;1.86;60.50;96090.56;4969428;28;20114;-61
2020/12/26 10:27:10;;;;;;;4.30;3.72;;;;;;;2.03;60.84;96103.81;4969126;28;20045;-60
2020/12/26 10:29:36;;;;;;;4.47;3.63;;;;;;;1.77;61.13;96058.59;4968665;28;20400;-61
2020/12/26 10:32:03;;;;;;;4.95;3.83;;;;;;;2.19;61.42;96095.28;4969570;28;20110;-61
2020/12/26 10:34:28;;;;;;;4.85;3.85;;;;;;;2.24;60.75;96094.59;4971657;28;20035;-60
2020/12/26 10:36:54;;;;;;;4.22;3.83;;;;;;;2.18;60.97;96077.13;4972853;28;20035;-59
2020/12/26 10:39:19;;;;;;;5.80;3.78;;;;;;;2.02;59.71;96047.91;4972177;28;20425;-61
2020/12/26 10:41:45;;;;;;;3.42;3.13;;;;;;;1.33;59.29;96083.44;4972268;28;20069;-62
2020/12/26 10:44:10;;;;;;;3.17;2.88;;;;;;;1.88;60.16;96082.47;4974603;28;20468;-61
2020/12/26 10:46:36;;;;;;;3.95;3.22;;;;;;;1.88;59.44;96061.47;4972603;28;20516;-61
2020/12/26 10:49:01;;;;;;;3.42;2.83;;;;;;;1.94;59.78;96042.19;4972437;28;20042;-61
2020/12/26 10:51:26;;;;;;;4.75;2.95;;;;;;;1.57;58.44;96076.47;4972162;28;20034;-61
2020/12/26 10:53:52;;;;;;;4.63;2.60;;;;;;;1.23;58.12;96080.59;4972452;28;20035;-62
2020/12/26 10:56:17;;;;;;;2.70;2.50;;;;;;;0.29;59.29;96039.97;4972321;28;20473;-62
2020/12/26 10:58:42;;;;;;;3.38;2.67;;;;;;;1.10;59.16;96091.22;4972643;28;20027;-61
2020/12/26 11:01:07;;;;;;;4.13;1.98;;;;;;;0.57;58.34;96091.84;4972229;28;20050;-61
2020/12/26 11:03:33;;;;;;;3.72;1.92;;;;;;;0.70;59.00;96071.53;4972069;28;20501;-61
2020/12/26 11:05:59;;;;;;;3.85;2.00;;;;;;;0.95;57.98;96060.97;4972300;28;20117;-61
2020/12/26 11:08:25;;;;;;;2.58;1.67;;;;;;;1.03;56.35;96063.28;4970631;28;20033;-61
2020/12/26 11:10:50;;;;;;;5.63;1.60;;;;;;;0.83;55.98;96031.31;4974190;28;20385;-61
2020/12/26 11:13:15;;;;;;;3.60;2.00;;;;;;;0.77;57.42;96055.75;4971994;28;20050;-61
2020/12/26 11:15:41;;;;;;;1.85;1.67;;;;;;;1.46;57.56;96080.66;4970743;28;20038;-61
2020/12/26 11:18:06;;;;;;;2.92;1.63;;;;;;;0.75;56.26;96066.44;4972306;28;20050;-60
2020/12/26 11:20:31;;;;;;;2.75;1.50;;;;;;;0.42;57.13;96037.22;4971951;28;20035;-61
2020/12/26 11:22:57;;;;;;;4.10;2.22;;;;;;;1.14;58.39;96071.41;4973494;28;20034;-61
2020/12/26 11:25:22;;;;;;;2.10;1.80;;;;;;;0.48;56.88;96016.19;4970517;28;20034;-61
2020/12/26 11:27:47;;;;;;;4.18;2.00;;;;;;;0.76;56.74;96073.25;4971772;28;20047;-61
2020/12/26 11:30:13;;;;;;;12.25;2.20;;;;;;;1.27;55.97;96053.69;4971581;28;20081;-60
2020/12/26 11:32:38;;;;;;;2.20;1.77;;;;;;;0.60;57.85;96049.50;4971846;28;20031;-61